createdAt,value
2019-03-05T00:01:39.482Z,7.60
2019-03-05T00:06:39.009Z,7.60
2019-03-05T00:11:38.654Z,7.60
2019-03-05T00:16:38.178Z,7.60
2019-03-05T00:21:38.670Z,7.50
2019-03-05T00:26:38.211Z,7.50
2019-03-05T00:31:38.833Z,7.60
2019-03-05T00:36:45.022Z,7.60
2019-03-05T00:42:21.063Z,7.70
2019-03-05T00:47:41.403Z,7.80
2019-03-05T00:53:18.213Z,7.80
2019-03-05T00:58:51.218Z,7.70
2019-03-05T01:04:15.938Z,7.80
2019-03-05T01:09:19.390Z,7.80
2019-03-05T01:14:19.344Z,7.80
2019-03-05T01:19:18.872Z,7.90
2019-03-05T01:24:18.478Z,7.90
2019-03-05T01:29:17.993Z,8.00
2019-03-05T01:34:22.490Z,7.80
2019-03-05T01:39:27.631Z,7.70
2019-03-05T01:44:27.230Z,7.60
2019-03-05T01:49:26.745Z,7.60
2019-03-05T01:54:26.357Z,7.50
2019-03-05T01:59:25.895Z,7.50
2019-03-05T02:04:25.504Z,7.50
2019-03-05T02:09:25.115Z,7.40
2019-03-05T02:14:24.860Z,7.30
2019-03-05T02:19:41.425Z,7.20
2019-03-05T02:25:17.327Z,7.10
2019-03-05T02:30:43.401Z,6.90
2019-03-05T02:36:05.071Z,6.90
2019-03-05T02:41:32.650Z,6.90
2019-03-05T02:46:59.905Z,6.80
2019-03-05T02:52:09.062Z,6.70
2019-03-05T02:57:10.910Z,6.60
2019-03-05T03:02:29.461Z,6.70
2019-03-05T03:07:29.435Z,6.70
2019-03-05T03:12:28.970Z,6.70
2019-03-05T03:17:28.508Z,6.70
2019-03-05T03:22:28.053Z,6.70
2019-03-05T03:27:27.620Z,6.80
2019-03-05T03:32:27.219Z,6.90
2019-03-05T03:37:26.748Z,7.00
2019-03-05T03:42:27.489Z,7.00
2019-03-05T03:47:27.085Z,7.10
2019-03-05T03:52:26.690Z,7.20
2019-03-05T03:57:26.228Z,7.30
2019-03-05T04:02:25.849Z,7.40
2019-03-05T04:07:25.541Z,7.50
2019-03-05T04:12:25.111Z,7.50
2019-03-05T04:17:24.739Z,7.50
2019-03-05T04:22:24.277Z,7.50
2019-03-05T04:27:24.877Z,7.50
2019-03-05T04:32:24.410Z,7.50
2019-03-05T04:37:23.942Z,7.40
2019-03-05T04:42:23.484Z,7.40
2019-03-05T04:47:23.022Z,7.40
2019-03-05T04:52:26.405Z,7.30
2019-03-05T04:57:26.437Z,7.30
2019-03-05T05:02:26.021Z,7.40
2019-03-05T05:07:25.549Z,7.40
2019-03-05T05:12:25.105Z,7.30
2019-03-05T05:17:24.638Z,7.30
2019-03-05T05:22:24.177Z,7.30
2019-03-05T05:27:24.784Z,7.30
2019-03-05T05:32:24.320Z,7.20
2019-03-05T05:37:23.940Z,7.30
2019-03-05T05:42:23.469Z,7.30
2019-03-05T05:47:23.027Z,7.30
2019-03-05T05:52:22.551Z,7.30
2019-03-05T05:57:22.090Z,7.30
2019-03-05T06:02:21.631Z,7.20
2019-03-05T06:07:21.169Z,7.30
2019-03-05T06:12:20.710Z,7.30
2019-03-05T06:17:21.309Z,7.20
2019-03-05T06:22:20.934Z,7.20
2019-03-05T06:27:21.393Z,7.30
2019-03-05T06:32:21.051Z,7.30
2019-03-05T06:37:20.627Z,7.40
2019-03-05T06:42:20.188Z,7.30
2019-03-05T06:47:19.712Z,7.40
2019-03-05T06:52:19.253Z,7.40
2019-03-05T06:57:18.826Z,7.40
2019-03-05T07:02:18.499Z,7.40
2019-03-05T07:07:18.062Z,7.40
2019-03-05T07:12:56.481Z,7.40
2019-03-05T07:18:03.996Z,7.40
2019-03-05T07:23:17.600Z,7.50
2019-03-05T07:28:21.213Z,7.50
2019-03-05T07:33:21.697Z,7.80
2019-03-05T07:38:21.246Z,7.80
2019-03-05T07:43:20.791Z,8.00
2019-03-05T07:48:20.330Z,8.00
2019-03-05T07:53:19.862Z,8.10
2019-03-05T07:58:19.414Z,8.20
2019-03-05T08:03:21.213Z,8.30
2019-03-05T08:08:57.426Z,8.10
2019-03-05T08:14:32.587Z,8.10
2019-03-05T08:19:32.189Z,8.20
2019-03-05T08:24:31.750Z,8.20
2019-03-05T08:29:31.287Z,8.40
2019-03-05T08:34:30.838Z,8.50
2019-03-05T08:39:30.462Z,8.50
2019-03-05T08:44:30.023Z,8.50
2019-03-05T08:49:29.571Z,8.60
2019-03-05T08:54:30.087Z,8.80
2019-03-05T08:59:29.617Z,9.10
2019-03-05T09:04:29.174Z,8.80
2019-03-05T09:09:30.828Z,8.50
2019-03-05T09:14:34.534Z,8.50
2019-03-05T09:19:33.926Z,8.70
2019-03-05T09:24:33.563Z,8.50
2019-03-05T09:29:33.113Z,8.30
2019-03-05T09:34:32.643Z,8.50
2019-03-05T09:39:32.186Z,8.80
2019-03-05T09:44:31.713Z,9.00
2019-03-05T09:49:31.254Z,8.80
2019-03-05T09:54:30.796Z,8.60
2019-03-05T09:59:30.326Z,8.40
2019-03-05T10:04:29.871Z,8.50
2019-03-05T10:09:29.399Z,8.60
2019-03-05T10:14:28.958Z,8.50
2019-03-05T10:19:28.683Z,8.60
2019-03-05T10:24:28.229Z,8.80
2019-03-05T10:29:27.858Z,8.80
2019-03-05T10:34:27.386Z,8.90
2019-03-05T10:39:30.970Z,9.00
2019-03-05T10:44:28.771Z,9.20
2019-03-05T10:49:28.396Z,9.90
2019-03-05T10:54:27.938Z,10.10
2019-03-05T10:59:27.483Z,9.60
2019-03-05T11:04:27.459Z,9.50
2019-03-05T11:09:27.006Z,10.00
2019-03-05T11:14:26.557Z,9.70
2019-03-05T11:19:27.234Z,9.30
2019-03-05T11:24:27.830Z,9.30
2019-03-05T11:29:27.358Z,9.10
2019-03-05T11:34:26.942Z,9.00
2019-03-05T11:39:27.486Z,9.10
2019-03-05T11:44:27.020Z,9.30
2019-03-05T11:49:26.562Z,9.40
2019-03-05T11:54:26.086Z,9.20
2019-03-05T11:59:25.725Z,9.10
2019-03-05T12:04:25.265Z,9.10
2019-03-05T12:09:24.884Z,9.10
2019-03-05T12:14:24.410Z,9.10
2019-03-05T12:19:23.973Z,9.20
2019-03-05T12:24:24.203Z,9.00
2019-03-05T12:29:24.799Z,8.70
2019-03-05T12:34:24.375Z,8.80
2019-03-05T12:39:23.930Z,8.80
2019-03-05T12:44:23.465Z,8.80
2019-03-05T12:49:23.001Z,9.10
2019-03-05T12:54:22.550Z,9.60
2019-03-05T12:59:22.175Z,9.80
2019-03-05T13:04:21.738Z,10.00
2019-03-05T13:09:21.298Z,10.10
2019-03-05T13:14:20.850Z,9.60
2019-03-05T13:19:20.399Z,9.30
2019-03-05T13:24:19.926Z,9.10
2019-03-05T13:29:20.584Z,9.20
2019-03-05T13:34:20.362Z,9.10
2019-03-05T13:39:22.222Z,9.50
2019-03-05T13:44:34.010Z,9.80
2019-03-05T13:50:09.383Z,9.80
2019-03-05T13:55:30.018Z,9.80
2019-03-05T14:00:29.641Z,9.60
2019-03-05T14:05:55.989Z,9.50
2019-03-05T14:10:55.620Z,9.20
2019-03-05T14:15:55.276Z,9.00
2019-03-05T14:20:54.913Z,9.00
2019-03-05T14:25:54.526Z,8.80
2019-03-05T14:30:54.087Z,9.00
2019-03-05T14:35:53.775Z,9.20
2019-03-05T14:40:53.378Z,9.40
2019-03-05T14:45:52.990Z,9.40
2019-03-05T14:50:52.752Z,9.40
2019-03-05T14:55:54.434Z,9.60
2019-03-05T15:00:55.446Z,10.20
2019-03-05T15:05:55.230Z,10.60
2019-03-05T15:10:54.947Z,11.10
2019-03-05T15:15:54.680Z,10.10
2019-03-05T15:20:54.335Z,9.40
2019-03-05T15:25:53.953Z,9.30
2019-03-05T15:30:53.578Z,9.10
2019-03-05T15:35:53.217Z,8.80
2019-03-05T15:40:52.782Z,8.00
2019-03-05T15:45:52.442Z,7.80
2019-03-05T15:50:52.050Z,9.60
2019-03-05T15:55:51.706Z,9.30
2019-03-05T16:00:51.348Z,8.90
2019-03-05T16:05:53.903Z,9.30
2019-03-05T16:10:54.671Z,8.90
2019-03-05T16:15:53.649Z,8.20
2019-03-05T16:20:53.266Z,7.80
2019-03-05T16:25:52.866Z,7.60
2019-03-05T16:31:26.640Z,7.50
2019-03-05T16:36:42.631Z,7.10
2019-03-05T16:42:13.200Z,6.80
2019-03-05T16:47:34.713Z,6.60
2019-03-05T16:52:45.709Z,6.50
2019-03-05T16:57:52.801Z,6.40
2019-03-05T17:03:10.505Z,6.40
2019-03-05T17:08:28.826Z,6.50
2019-03-05T17:13:28.534Z,6.50
2019-03-05T17:18:28.142Z,6.50
2019-03-05T17:23:27.758Z,6.60
2019-03-05T17:28:27.402Z,6.60
2019-03-05T17:33:27.719Z,6.50
2019-03-05T17:38:27.323Z,6.50
2019-03-05T17:43:26.930Z,6.50
2019-03-05T17:48:26.718Z,6.30
2019-03-05T17:53:26.364Z,6.20
2019-03-05T17:58:26.147Z,6.20
2019-03-05T18:03:25.679Z,6.10
2019-03-05T18:08:25.518Z,6.10
2019-03-05T18:13:25.246Z,6.10
2019-03-05T18:18:24.862Z,6.10
2019-03-05T18:23:24.661Z,6.20
2019-03-05T18:28:24.193Z,6.20
2019-03-05T18:33:24.078Z,6.30
2019-03-05T18:38:23.606Z,6.40
2019-03-05T18:43:23.318Z,6.30
2019-03-05T18:48:23.048Z,6.30
2019-03-05T18:53:22.577Z,6.40
2019-03-05T18:58:23.030Z,6.30
2019-03-05T19:03:22.621Z,6.20
2019-03-05T19:08:22.145Z,6.20
2019-03-05T19:13:21.946Z,6.10
2019-03-05T19:18:21.515Z,6.10
2019-03-05T19:23:21.132Z,6.10
2019-03-05T19:28:20.674Z,6.10
2019-03-05T19:33:20.222Z,6.10
2019-03-05T19:38:19.752Z,6.20
2019-03-05T19:43:19.314Z,6.30
2019-03-05T19:48:19.109Z,6.20
2019-03-05T19:53:18.666Z,6.20
2019-03-05T19:58:18.233Z,6.10
2019-03-05T20:03:20.010Z,6.10
2019-03-05T20:08:20.108Z,6.10
2019-03-05T20:13:20.128Z,6.00
2019-03-05T20:18:19.678Z,6.00
2019-03-05T20:23:19.228Z,6.00
2019-03-05T20:28:18.761Z,6.00
2019-03-05T20:33:18.294Z,6.00
2019-03-05T20:38:18.291Z,5.90
2019-03-05T20:43:17.986Z,6.00
2019-03-05T20:48:19.042Z,6.00
2019-03-05T20:53:18.847Z,6.00
2019-03-05T20:58:18.456Z,6.00
2019-03-05T21:03:18.662Z,6.00
2019-03-05T21:08:18.335Z,5.80
2019-03-05T21:13:17.881Z,5.80
2019-03-05T21:18:19.420Z,5.70
2019-03-05T21:23:18.793Z,5.70
2019-03-05T21:28:18.326Z,5.70
2019-03-05T21:33:17.853Z,5.70
2019-03-05T21:38:17.466Z,5.80
2019-03-05T21:43:16.994Z,5.80
2019-03-05T21:48:16.911Z,5.80
2019-03-05T21:53:16.567Z,5.70
2019-03-05T21:58:16.102Z,5.60
2019-03-05T22:03:15.747Z,5.60
2019-03-05T22:08:15.367Z,5.60
2019-03-05T22:13:15.115Z,5.60
2019-03-05T22:18:14.657Z,5.70
2019-03-05T22:23:14.591Z,5.70
2019-03-05T22:28:14.123Z,5.60
2019-03-05T22:33:13.661Z,5.50
2019-03-05T22:38:13.210Z,5.50
2019-03-05T22:43:12.747Z,5.80
2019-03-05T22:48:12.307Z,5.60
2019-03-05T22:53:11.854Z,5.40
2019-03-05T22:58:11.757Z,5.30
2019-03-05T23:03:12.282Z,5.20
2019-03-05T23:08:11.954Z,5.10
2019-03-05T23:13:13.817Z,5.00
2019-03-05T23:18:13.350Z,5.10
2019-03-05T23:23:13.066Z,5.00
2019-03-05T23:28:12.674Z,5.00
2019-03-05T23:33:12.578Z,5.00
2019-03-05T23:38:12.286Z,5.00
2019-03-05T23:43:11.902Z,4.90
2019-03-05T23:48:11.433Z,5.00
2019-03-05T23:53:11.005Z,4.90
2019-03-05T23:58:10.554Z,4.90
